Nemencine, Lithuania
Current Conditions -  °F | °C
As of 5:20 PM on Friday 24 Oct 2014 (Local Time) from EYVI Reporting Station
Clear Clear  
Wind Chill: 24°   Ceiling: Unl
Heat Index: 32°   Visibility: 6mi
Dew Point:   Wind: 9mph
Humidity: 38%   Direction: 130°SE
Pressure: 30.5"   Gusts: NA
Location:  54.85°N, 25.48°E
Report Text: EYVI 241420Z 13008KT CAVOK 00/M13 Q1033 NOSIG
Loading
Personal Weather Stations






























Interactive Weather Map
Tropical Storm Tracking
New forecast layout! Learn more

10-Day Weather Forecast

Advertisements
Track Severe Weather on mobile